Duluth, GA (30098)

11:47 PM EDT on August 28, 2016 (GMT -0400)
U.S. 23 | | Change Station

Elev 997 ft 34.03 °N, 84.10 °W | Updated 1 minute ago

Clear
Clear
79.5 °F
Feels Like 82 °F
N
0.6
Wind Variable Wind from SW
Gusts 3.7 mph

Today
High -- | Low -- °F
--% Chance of Precip.
Yesterday
High -- | Low -- °F
Precip. -- in
Pressure 30.07 in
Visibility 10.0 miles
Clouds Clear
Heat Index 82 °F
Dew Point 70 °F
Humidity 71%
Rainfall Not available.
Snow Depth Not available.
7:07 AM 8:06 PM
Waning Crescent, 11% visible
METAR KPDK 290253Z 08005KT 10SM CLR 28/20 A3012 RMK AO2 SLP181 T02780200 51015
Pressure 30.07 in
Visibility 10.0 miles
Clouds Clear
Heat Index 82 °F
Dew Point 70 °F
Humidity 71%
Rainfall Not available.
Snow Depth Not available.
7:07 AM 8:06 PM
Waning Crescent, 11% visible
METAR KPDK 290253Z 08005KT 10SM CLR 28/20 A3012 RMK AO2 SLP181 T02780200 51015
The area of storminess, previously known as Invest 99-L that we were monitoring for days, finally developed into Tropical Depression Nine near the Florida Keys on Sunday evening.

There remains a large degree of uncertainty around how much this system will strengthen once it gets into the southeast Gulf of Mexico. For now, the clockwise flow around upper-level high pressure over the eastern United States will steer Tropical Depression Nine west-northwest toward the Gulf. That high will weaken by Tuesday, allowing this system to move more north, and then eventually northeast the next several days on a path toward the Florida Gulf Coast.

10-Day Weather Forecast

Almanac

Astronomy

Aug. 28, 2016 Rise Set
Actual Time
Civil Twilight
Nautical Twilight
Astronomical Twilight
Moon
Length of Visible Light
Length of Day
Tomorrow will be .
, % of the Moon is Illuminated

Today's Extremes

State Highs State Lows

Community

WunderPhotos

Upload Photos

1,935,783 photos uploaded!

WunderBlog® & News

Nearby

Air Quality

  Air Quality AQ Index Pollutant
Not available.

Snow Depth

Station Depth Elevation

Earthquake Activity

City Distance Mag. Time & Date
Minimum magnitude displayed is 2.5.

Coastal Water Temperatures

Place Temperature

Stations

Nearby Weather Stations

Station Location Temp. Windchill Dew Point Humidity Wind Precip. Elev Updated Type
                   

Watches & Warnings

There are currently no watches in effect.